sensor_id;sensor_type;location;lat;lon;timestamp;P1;durP1;ratioP1;P2;durP2;ratioP2
5171;SDS011;2605;49.770;9.868;2022-10-15T00:00:34;4.93;;;4.53;;
5171;SDS011;2605;49.770;9.868;2022-10-15T00:03:00;5.10;;;4.80;;
5171;SDS011;2605;49.770;9.868;2022-10-15T00:05:26;4.77;;;4.57;;
5171;SDS011;2605;49.770;9.868;2022-10-15T00:07:51;4.67;;;4.47;;
5171;SDS011;2605;49.770;9.868;2022-10-15T00:10:18;5.33;;;5.10;;
5171;SDS011;2605;49.770;9.868;2022-10-15T00:12:44;5.57;;;5.20;;
5171;SDS011;2605;49.770;9.868;2022-10-15T00:15:10;5.07;;;4.77;;
5171;SDS011;2605;49.770;9.868;2022-10-15T00:17:36;5.23;;;4.73;;
5171;SDS011;2605;49.770;9.868;2022-10-15T00:20:03;4.77;;;4.47;;
5171;SDS011;2605;49.770;9.868;2022-10-15T00:22:30;4.73;;;4.40;;
5171;SDS011;2605;49.770;9.868;2022-10-15T00:24:55;4.50;;;4.30;;
5171;SDS011;2605;49.770;9.868;2022-10-15T00:27:21;4.87;;;4.57;;
5171;SDS011;2605;49.770;9.868;2022-10-15T00:29:46;4.80;;;4.60;;
5171;SDS011;2605;49.770;9.868;2022-10-15T00:32:12;4.60;;;4.20;;
5171;SDS011;2605;49.770;9.868;2022-10-15T00:34:38;4.47;;;4.17;;
5171;SDS011;2605;49.770;9.868;2022-10-15T00:37:04;5.10;;;4.70;;
5171;SDS011;2605;49.770;9.868;2022-10-15T00:39:29;4.67;;;4.37;;
5171;SDS011;2605;49.770;9.868;2022-10-15T00:41:55;7.40;;;5.10;;
5171;SDS011;2605;49.770;9.868;2022-10-15T00:47:47;4.87;;;4.57;;
5171;SDS011;2605;49.770;9.868;2022-10-15T00:55:06;5.10;;;4.90;;
5171;SDS011;2605;49.770;9.868;2022-10-15T00:57:38;4.83;;;4.53;;
5171;SDS011;2605;49.770;9.868;2022-10-15T01:00:06;5.00;;;4.70;;
5171;SDS011;2605;49.770;9.868;2022-10-15T01:02:34;4.90;;;4.50;;
5171;SDS011;2605;49.770;9.868;2022-10-15T01:04:59;4.93;;;4.57;;
5171;SDS011;2605;49.770;9.868;2022-10-15T01:07:25;4.73;;;4.53;;
5171;SDS011;2605;49.770;9.868;2022-10-15T01:09:50;5.60;;;5.30;;
5171;SDS011;2605;49.770;9.868;2022-10-15T01:12:19;5.43;;;5.10;;
5171;SDS011;2605;49.770;9.868;2022-10-15T01:15:08;4.73;;;4.40;;
5171;SDS011;2605;49.770;9.868;2022-10-15T01:17:44;5.00;;;4.70;;
5171;SDS011;2605;49.770;9.868;2022-10-15T01:26:52;4.63;;;4.33;;
5171;SDS011;2605;49.770;9.868;2022-10-15T01:32:42;5.70;;;5.40;;
5171;SDS011;2605;49.770;9.868;2022-10-15T01:37:59;5.30;;;5.10;;
5171;SDS011;2605;49.770;9.868;2022-10-15T01:40:36;5.50;;;5.10;;
5171;SDS011;2605;49.770;9.868;2022-10-15T01:43:15;5.60;;;5.30;;
5171;SDS011;2605;49.770;9.868;2022-10-15T01:45:48;4.70;;;4.30;;
5171;SDS011;2605;49.770;9.868;2022-10-15T01:48:25;5.60;;;4.57;;
5171;SDS011;2605;49.770;9.868;2022-10-15T01:50:53;4.80;;;4.50;;
5171;SDS011;2605;49.770;9.868;2022-10-15T01:53:24;5.00;;;4.80;;
5171;SDS011;2605;49.770;9.868;2022-10-15T01:55:55;5.03;;;4.73;;
5171;SDS011;2605;49.770;9.868;2022-10-15T01:58:23;5.03;;;4.70;;
5171;SDS011;2605;49.770;9.868;2022-10-15T02:00:50;4.50;;;4.30;;
5171;SDS011;2605;49.770;9.868;2022-10-15T02:03:19;4.10;;;3.90;;
5171;SDS011;2605;49.770;9.868;2022-10-15T02:05:56;4.23;;;3.93;;
5171;SDS011;2605;49.770;9.868;2022-10-15T02:08:39;4.00;;;3.80;;
5171;SDS011;2605;49.770;9.868;2022-10-15T02:11:14;4.50;;;4.13;;
5171;SDS011;2605;49.770;9.868;2022-10-15T02:13:59;3.30;;;3.20;;
5171;SDS011;2605;49.770;9.868;2022-10-15T02:19:17;4.00;;;3.80;;
5171;SDS011;2605;49.770;9.868;2022-10-15T02:21:56;3.80;;;3.70;;
5171;SDS011;2605;49.770;9.868;2022-10-15T02:24:31;5.70;;;3.50;;
5171;SDS011;2605;49.770;9.868;2022-10-15T02:27:02;4.00;;;3.80;;
5171;SDS011;2605;49.770;9.868;2022-10-15T02:29:29;4.30;;;4.10;;
5171;SDS011;2605;49.770;9.868;2022-10-15T02:31:57;3.70;;;3.60;;
5171;SDS011;2605;49.770;9.868;2022-10-15T02:34:28;3.80;;;3.60;;
5171;SDS011;2605;49.770;9.868;2022-10-15T02:36:59;3.43;;;3.33;;
5171;SDS011;2605;49.770;9.868;2022-10-15T02:39:26;3.70;;;3.60;;
5171;SDS011;2605;49.770;9.868;2022-10-15T02:41:52;4.83;;;3.37;;
5171;SDS011;2605;49.770;9.868;2022-10-15T02:44:18;3.87;;;3.77;;
5171;SDS011;2605;49.770;9.868;2022-10-15T02:46:44;3.80;;;3.60;;
5171;SDS011;2605;49.770;9.868;2022-10-15T02:49:10;3.50;;;3.30;;
5171;SDS011;2605;49.770;9.868;2022-10-15T02:51:35;3.33;;;3.23;;
5171;SDS011;2605;49.770;9.868;2022-10-15T02:54:02;3.57;;;3.47;;
5171;SDS011;2605;49.770;9.868;2022-10-15T02:56:29;3.53;;;3.43;;
5171;SDS011;2605;49.770;9.868;2022-10-15T02:58:55;3.50;;;3.30;;
5171;SDS011;2605;49.770;9.868;2022-10-15T03:01:21;3.30;;;3.20;;
5171;SDS011;2605;49.770;9.868;2022-10-15T03:03:46;3.00;;;2.90;;
5171;SDS011;2605;49.770;9.868;2022-10-15T03:06:12;4.17;;;3.20;;
5171;SDS011;2605;49.770;9.868;2022-10-15T03:08:38;2.70;;;2.60;;
5171;SDS011;2605;49.770;9.868;2022-10-15T03:11:03;2.70;;;2.60;;
5171;SDS011;2605;49.770;9.868;2022-10-15T03:13:29;3.07;;;2.83;;
5171;SDS011;2605;49.770;9.868;2022-10-15T03:15:55;3.00;;;2.90;;
5171;SDS011;2605;49.770;9.868;2022-10-15T03:18:20;4.30;;;2.90;;
5171;SDS011;2605;49.770;9.868;2022-10-15T03:20:53;3.27;;;3.07;;
5171;SDS011;2605;49.770;9.868;2022-10-15T03:23:19;2.90;;;2.80;;
5171;SDS011;2605;49.770;9.868;2022-10-15T03:25:45;2.90;;;2.80;;
5171;SDS011;2605;49.770;9.868;2022-10-15T03:28:11;3.10;;;2.93;;
5171;SDS011;2605;49.770;9.868;2022-10-15T03:30:36;3.03;;;2.93;;
5171;SDS011;2605;49.770;9.868;2022-10-15T03:33:04;2.90;;;2.80;;
5171;SDS011;2605;49.770;9.868;2022-10-15T03:35:29;3.00;;;2.90;;
5171;SDS011;2605;49.770;9.868;2022-10-15T03:37:55;2.90;;;2.80;;
5171;SDS011;2605;49.770;9.868;2022-10-15T03:40:20;6.60;;;3.23;;
5171;SDS011;2605;49.770;9.868;2022-10-15T03:42:49;3.13;;;2.93;;
5171;SDS011;2605;49.770;9.868;2022-10-15T03:45:16;3.10;;;3.00;;
5171;SDS011;2605;49.770;9.868;2022-10-15T03:47:44;3.20;;;3.00;;
5171;SDS011;2605;49.770;9.868;2022-10-15T03:50:11;2.80;;;2.70;;
5171;SDS011;2605;49.770;9.868;2022-10-15T03:52:37;2.80;;;2.70;;
5171;SDS011;2605;49.770;9.868;2022-10-15T03:55:03;3.57;;;3.10;;
5171;SDS011;2605;49.770;9.868;2022-10-15T03:57:29;3.03;;;2.93;;
5171;SDS011;2605;49.770;9.868;2022-10-15T03:59:55;2.97;;;2.87;;
5171;SDS011;2605;49.770;9.868;2022-10-15T04:02:20;2.80;;;2.70;;
5171;SDS011;2605;49.770;9.868;2022-10-15T04:04:46;2.77;;;2.67;;
5171;SDS011;2605;49.770;9.868;2022-10-15T04:07:12;3.00;;;2.90;;
5171;SDS011;2605;49.770;9.868;2022-10-15T04:09:37;3.23;;;3.00;;
5171;SDS011;2605;49.770;9.868;2022-10-15T04:12:03;3.00;;;2.70;;
5171;SDS011;2605;49.770;9.868;2022-10-15T04:14:29;2.90;;;2.80;;
5171;SDS011;2605;49.770;9.868;2022-10-15T04:16:54;2.90;;;2.80;;
5171;SDS011;2605;49.770;9.868;2022-10-15T04:19:20;2.90;;;2.80;;
5171;SDS011;2605;49.770;9.868;2022-10-15T04:21:46;2.83;;;2.73;;
5171;SDS011;2605;49.770;9.868;2022-10-15T04:24:11;3.07;;;2.97;;
5171;SDS011;2605;49.770;9.868;2022-10-15T04:26:37;3.47;;;3.00;;
5171;SDS011;2605;49.770;9.868;2022-10-15T04:29:02;2.93;;;2.83;;
5171;SDS011;2605;49.770;9.868;2022-10-15T04:31:28;2.80;;;2.70;;
5171;SDS011;2605;49.770;9.868;2022-10-15T04:33:53;2.90;;;2.80;;
5171;SDS011;2605;49.770;9.868;2022-10-15T04:36:19;3.00;;;2.90;;
5171;SDS011;2605;49.770;9.868;2022-10-15T04:38:44;3.10;;;2.90;;
5171;SDS011;2605;49.770;9.868;2022-10-15T04:41:10;3.50;;;2.90;;
5171;SDS011;2605;49.770;9.868;2022-10-15T04:43:37;3.63;;;2.87;;
5171;SDS011;2605;49.770;9.868;2022-10-15T04:46:04;2.90;;;2.80;;
5171;SDS011;2605;49.770;9.868;2022-10-15T04:48:32;2.90;;;2.80;;
5171;SDS011;2605;49.770;9.868;2022-10-15T04:51:05;2.80;;;2.70;;
5171;SDS011;2605;49.770;9.868;2022-10-15T04:53:33;3.10;;;2.90;;
5171;SDS011;2605;49.770;9.868;2022-10-15T04:56:00;3.23;;;3.13;;
5171;SDS011;2605;49.770;9.868;2022-10-15T04:58:28;3.00;;;2.80;;
5171;SDS011;2605;49.770;9.868;2022-10-15T05:00:54;3.10;;;3.00;;
5171;SDS011;2605;49.770;9.868;2022-10-15T05:03:22;3.50;;;3.40;;
5171;SDS011;2605;49.770;9.868;2022-10-15T05:05:48;3.20;;;3.10;;
5171;SDS011;2605;49.770;9.868;2022-10-15T05:08:13;4.00;;;3.67;;
5171;SDS011;2605;49.770;9.868;2022-10-15T05:10:39;3.40;;;3.30;;
5171;SDS011;2605;49.770;9.868;2022-10-15T05:13:04;3.10;;;2.90;;
5171;SDS011;2605;49.770;9.868;2022-10-15T05:15:30;3.73;;;3.43;;
5171;SDS011;2605;49.770;9.868;2022-10-15T05:17:55;3.03;;;2.93;;
5171;SDS011;2605;49.770;9.868;2022-10-15T05:20:21;3.40;;;3.30;;
5171;SDS011;2605;49.770;9.868;2022-10-15T05:22:46;3.30;;;3.20;;
5171;SDS011;2605;49.770;9.868;2022-10-15T05:25:12;3.20;;;3.00;;
5171;SDS011;2605;49.770;9.868;2022-10-15T05:27:37;3.40;;;3.30;;
5171;SDS011;2605;49.770;9.868;2022-10-15T05:30:03;3.47;;;3.27;;
5171;SDS011;2605;49.770;9.868;2022-10-15T05:32:29;3.67;;;3.47;;
5171;SDS011;2605;49.770;9.868;2022-10-15T05:34:58;3.53;;;3.40;;
5171;SDS011;2605;49.770;9.868;2022-10-15T05:37:23;4.00;;;3.80;;
5171;SDS011;2605;49.770;9.868;2022-10-15T05:39:49;3.67;;;3.50;;
5171;SDS011;2605;49.770;9.868;2022-10-15T05:42:14;4.30;;;4.03;;
5171;SDS011;2605;49.770;9.868;2022-10-15T05:44:40;3.67;;;3.47;;
5171;SDS011;2605;49.770;9.868;2022-10-15T05:47:05;4.10;;;3.90;;
5171;SDS011;2605;49.770;9.868;2022-10-15T05:49:35;4.80;;;4.50;;
5171;SDS011;2605;49.770;9.868;2022-10-15T05:52:01;4.13;;;3.93;;
5171;SDS011;2605;49.770;9.868;2022-10-15T05:54:26;5.10;;;3.90;;
5171;SDS011;2605;49.770;9.868;2022-10-15T05:56:52;3.90;;;3.73;;
5171;SDS011;2605;49.770;9.868;2022-10-15T05:59:17;3.73;;;3.63;;
5171;SDS011;2605;49.770;9.868;2022-10-15T06:01:43;4.60;;;3.83;;
5171;SDS011;2605;49.770;9.868;2022-10-15T06:04:08;4.27;;;4.00;;
5171;SDS011;2605;49.770;9.868;2022-10-15T06:06:34;4.10;;;3.90;;
5171;SDS011;2605;49.770;9.868;2022-10-15T06:09:02;4.40;;;4.10;;
5171;SDS011;2605;49.770;9.868;2022-10-15T06:11:28;4.30;;;4.10;;
5171;SDS011;2605;49.770;9.868;2022-10-15T06:13:53;5.23;;;4.43;;
5171;SDS011;2605;49.770;9.868;2022-10-15T06:16:19;4.27;;;3.97;;
5171;SDS011;2605;49.770;9.868;2022-10-15T06:18:44;3.80;;;3.63;;
5171;SDS011;2605;49.770;9.868;2022-10-15T06:21:10;4.00;;;3.80;;
5171;SDS011;2605;49.770;9.868;2022-10-15T06:23:36;4.00;;;3.80;;
5171;SDS011;2605;49.770;9.868;2022-10-15T06:26:06;4.43;;;4.00;;
5171;SDS011;2605;49.770;9.868;2022-10-15T06:28:33;4.40;;;4.10;;
5171;SDS011;2605;49.770;9.868;2022-10-15T06:30:59;5.33;;;4.90;;
5171;SDS011;2605;49.770;9.868;2022-10-15T06:33:25;4.47;;;4.27;;
5171;SDS011;2605;49.770;9.868;2022-10-15T06:35:52;4.23;;;4.03;;
5171;SDS011;2605;49.770;9.868;2022-10-15T06:38:18;4.37;;;4.07;;
5171;SDS011;2605;49.770;9.868;2022-10-15T06:40:44;4.67;;;4.37;;
5171;SDS011;2605;49.770;9.868;2022-10-15T06:43:10;5.13;;;4.70;;
5171;SDS011;2605;49.770;9.868;2022-10-15T06:45:37;4.53;;;4.23;;
5171;SDS011;2605;49.770;9.868;2022-10-15T06:48:04;5.33;;;5.03;;
5171;SDS011;2605;49.770;9.868;2022-10-15T06:50:31;4.00;;;3.70;;
5171;SDS011;2605;49.770;9.868;2022-10-15T06:52:57;4.60;;;4.27;;
5171;SDS011;2605;49.770;9.868;2022-10-15T06:55:23;4.07;;;3.87;;
5171;SDS011;2605;49.770;9.868;2022-10-15T06:57:48;4.50;;;4.20;;
5171;SDS011;2605;49.770;9.868;2022-10-15T07:00:14;3.73;;;3.50;;
5171;SDS011;2605;49.770;9.868;2022-10-15T07:02:40;3.77;;;3.50;;
5171;SDS011;2605;49.770;9.868;2022-10-15T07:05:06;2.90;;;2.80;;
5171;SDS011;2605;49.770;9.868;2022-10-15T07:07:32;2.47;;;2.37;;
5171;SDS011;2605;49.770;9.868;2022-10-15T07:09:57;3.00;;;2.80;;
5171;SDS011;2605;49.770;9.868;2022-10-15T07:12:23;2.60;;;2.50;;
5171;SDS011;2605;49.770;9.868;2022-10-15T07:14:48;2.67;;;2.57;;
5171;SDS011;2605;49.770;9.868;2022-10-15T07:17:14;2.60;;;2.50;;
5171;SDS011;2605;49.770;9.868;2022-10-15T07:19:40;2.33;;;2.23;;
5171;SDS011;2605;49.770;9.868;2022-10-15T07:22:06;2.80;;;2.70;;
5171;SDS011;2605;49.770;9.868;2022-10-15T07:24:32;2.43;;;2.33;;
5171;SDS011;2605;49.770;9.868;2022-10-15T07:26:57;2.50;;;2.40;;
5171;SDS011;2605;49.770;9.868;2022-10-15T07:29:23;2.23;;;2.13;;
5171;SDS011;2605;49.770;9.868;2022-10-15T07:31:48;2.50;;;2.40;;
5171;SDS011;2605;49.770;9.868;2022-10-15T07:34:14;2.63;;;2.43;;
5171;SDS011;2605;49.770;9.868;2022-10-15T07:36:40;2.20;;;2.20;;
5171;SDS011;2605;49.770;9.868;2022-10-15T07:39:05;2.60;;;2.50;;
5171;SDS011;2605;49.770;9.868;2022-10-15T07:41:31;2.50;;;2.40;;
5171;SDS011;2605;49.770;9.868;2022-10-15T07:43:56;2.30;;;2.20;;
5171;SDS011;2605;49.770;9.868;2022-10-15T07:46:22;2.60;;;2.50;;
5171;SDS011;2605;49.770;9.868;2022-10-15T07:48:47;2.60;;;2.50;;
5171;SDS011;2605;49.770;9.868;2022-10-15T07:51:13;2.80;;;2.70;;
5171;SDS011;2605;49.770;9.868;2022-10-15T07:53:38;2.80;;;2.70;;
5171;SDS011;2605;49.770;9.868;2022-10-15T07:56:05;2.90;;;2.80;;
5171;SDS011;2605;49.770;9.868;2022-10-15T07:58:32;3.30;;;3.20;;
5171;SDS011;2605;49.770;9.868;2022-10-15T08:00:59;3.40;;;3.30;;
5171;SDS011;2605;49.770;9.868;2022-10-15T08:03:26;3.73;;;3.63;;
5171;SDS011;2605;49.770;9.868;2022-10-15T08:05:52;3.93;;;3.73;;
5171;SDS011;2605;49.770;9.868;2022-10-15T08:08:19;3.50;;;3.40;;
5171;SDS011;2605;49.770;9.868;2022-10-15T08:10:46;3.90;;;3.70;;
5171;SDS011;2605;49.770;9.868;2022-10-15T08:13:11;3.70;;;3.60;;
5171;SDS011;2605;49.770;9.868;2022-10-15T08:15:40;4.10;;;3.90;;
5171;SDS011;2605;49.770;9.868;2022-10-15T08:18:07;4.20;;;4.00;;
5171;SDS011;2605;49.770;9.868;2022-10-15T08:20:34;4.13;;;3.93;;
5171;SDS011;2605;49.770;9.868;2022-10-15T08:23:01;4.00;;;3.80;;
5171;SDS011;2605;49.770;9.868;2022-10-15T08:25:27;4.90;;;4.50;;
5171;SDS011;2605;49.770;9.868;2022-10-15T08:27:53;4.70;;;4.40;;
5171;SDS011;2605;49.770;9.868;2022-10-15T08:30:18;5.20;;;4.90;;
5171;SDS011;2605;49.770;9.868;2022-10-15T08:32:44;6.60;;;4.73;;
5171;SDS011;2605;49.770;9.868;2022-10-15T08:35:09;5.40;;;5.10;;
5171;SDS011;2605;49.770;9.868;2022-10-15T08:37:35;5.23;;;4.93;;
5171;SDS011;2605;49.770;9.868;2022-10-15T08:40:01;4.87;;;4.67;;
5171;SDS011;2605;49.770;9.868;2022-10-15T08:42:30;5.60;;;5.20;;
5171;SDS011;2605;49.770;9.868;2022-10-15T08:45:01;4.33;;;4.13;;
5171;SDS011;2605;49.770;9.868;2022-10-15T08:47:37;4.63;;;4.40;;
5171;SDS011;2605;49.770;9.868;2022-10-15T08:50:27;4.50;;;4.23;;
5171;SDS011;2605;49.770;9.868;2022-10-15T08:53:18;3.53;;;3.43;;
5171;SDS011;2605;49.770;9.868;2022-10-15T08:55:47;3.60;;;3.40;;
5171;SDS011;2605;49.770;9.868;2022-10-15T09:01:41;4.63;;;3.63;;
5171;SDS011;2605;49.770;9.868;2022-10-15T09:10:00;2.90;;;2.70;;
5171;SDS011;2605;49.770;9.868;2022-10-15T09:12:42;2.40;;;2.30;;
5171;SDS011;2605;49.770;9.868;2022-10-15T09:15:18;2.73;;;2.63;;
5171;SDS011;2605;49.770;9.868;2022-10-15T09:17:45;2.40;;;2.30;;
5171;SDS011;2605;49.770;9.868;2022-10-15T09:20:15;2.50;;;2.00;;
5171;SDS011;2605;49.770;9.868;2022-10-15T09:22:43;1.73;;;1.43;;
5171;SDS011;2605;49.770;9.868;2022-10-15T09:25:17;3.43;;;1.67;;
5171;SDS011;2605;49.770;9.868;2022-10-15T09:27:48;1.67;;;1.57;;
5171;SDS011;2605;49.770;9.868;2022-10-15T09:41:52;1.73;;;1.43;;
5171;SDS011;2605;49.770;9.868;2022-10-15T09:44:31;1.40;;;1.30;;
5171;SDS011;2605;49.770;9.868;2022-10-15T09:47:01;1.97;;;1.40;;
5171;SDS011;2605;49.770;9.868;2022-10-15T09:49:52;1.47;;;1.37;;
5171;SDS011;2605;49.770;9.868;2022-10-15T09:52:27;1.40;;;1.30;;
5171;SDS011;2605;49.770;9.868;2022-10-15T09:57:56;1.77;;;1.30;;
5171;SDS011;2605;49.770;9.868;2022-10-15T10:00:46;1.20;;;1.20;;
5171;SDS011;2605;49.770;9.868;2022-10-15T10:03:19;1.20;;;1.20;;
5171;SDS011;2605;49.770;9.868;2022-10-15T10:05:47;1.37;;;1.30;;
5171;SDS011;2605;49.770;9.868;2022-10-15T10:08:23;1.30;;;1.20;;
5171;SDS011;2605;49.770;9.868;2022-10-15T10:10:53;1.40;;;1.30;;
5171;SDS011;2605;49.770;9.868;2022-10-15T10:13:22;1.20;;;1.10;;
5171;SDS011;2605;49.770;9.868;2022-10-15T10:16:00;1.20;;;1.17;;
5171;SDS011;2605;49.770;9.868;2022-10-15T10:18:29;1.20;;;1.07;;
5171;SDS011;2605;49.770;9.868;2022-10-15T10:20:57;1.17;;;1.17;;
5171;SDS011;2605;49.770;9.868;2022-10-15T10:23:45;1.20;;;1.20;;
5171;SDS011;2605;49.770;9.868;2022-10-15T10:26:09;2.00;;;1.57;;
5171;SDS011;2605;49.770;9.868;2022-10-15T10:28:47;1.60;;;1.50;;
5171;SDS011;2605;49.770;9.868;2022-10-15T10:31:14;1.43;;;1.40;;
5171;SDS011;2605;49.770;9.868;2022-10-15T10:33:44;1.43;;;1.33;;
5171;SDS011;2605;49.770;9.868;2022-10-15T10:36:46;1.30;;;1.20;;
5171;SDS011;2605;49.770;9.868;2022-10-15T10:41:48;1.77;;;1.00;;
5171;SDS011;2605;49.770;9.868;2022-10-15T10:44:20;1.30;;;1.20;;
5171;SDS011;2605;49.770;9.868;2022-10-15T10:49:34;1.80;;;1.30;;
5171;SDS011;2605;49.770;9.868;2022-10-15T10:52:02;1.30;;;1.20;;
5171;SDS011;2605;49.770;9.868;2022-10-15T10:54:29;1.40;;;1.40;;
5171;SDS011;2605;49.770;9.868;2022-10-15T10:56:57;1.20;;;1.20;;
5171;SDS011;2605;49.770;9.868;2022-10-15T10:59:26;1.20;;;1.10;;
5171;SDS011;2605;49.770;9.868;2022-10-15T11:02:00;1.83;;;1.30;;
5171;SDS011;2605;49.770;9.868;2022-10-15T11:04:29;3.27;;;1.50;;
5171;SDS011;2605;49.770;9.868;2022-10-15T11:06:59;3.07;;;1.53;;
5171;SDS011;2605;49.770;9.868;2022-10-15T11:12:20;1.37;;;1.27;;
5171;SDS011;2605;49.770;9.868;2022-10-15T11:15:30;1.60;;;1.30;;
5171;SDS011;2605;49.770;9.868;2022-10-15T11:21:06;1.10;;;1.10;;
5171;SDS011;2605;49.770;9.868;2022-10-15T11:27:03;5.30;;;1.30;;
5171;SDS011;2605;49.770;9.868;2022-10-15T11:29:54;1.20;;;1.20;;
5171;SDS011;2605;49.770;9.868;2022-10-15T11:35:20;1.30;;;1.30;;
5171;SDS011;2605;49.770;9.868;2022-10-15T11:38:12;1.50;;;1.40;;
5171;SDS011;2605;49.770;9.868;2022-10-15T11:41:05;1.20;;;1.20;;
5171;SDS011;2605;49.770;9.868;2022-10-15T11:46:34;7.60;;;1.50;;
5171;SDS011;2605;49.770;9.868;2022-10-15T11:52:37;1.40;;;1.30;;
5171;SDS011;2605;49.770;9.868;2022-10-15T11:57:25;1.40;;;1.30;;
5171;SDS011;2605;49.770;9.868;2022-10-15T11:59:54;1.40;;;1.30;;
5171;SDS011;2605;49.770;9.868;2022-10-15T12:02:29;1.17;;;1.17;;
5171;SDS011;2605;49.770;9.868;2022-10-15T12:04:57;1.13;;;1.13;;
5171;SDS011;2605;49.770;9.868;2022-10-15T12:07:45;1.20;;;1.20;;
5171;SDS011;2605;49.770;9.868;2022-10-15T12:15:55;1.77;;;1.00;;
5171;SDS011;2605;49.770;9.868;2022-10-15T12:18:46;3.10;;;1.37;;
5171;SDS011;2605;49.770;9.868;2022-10-15T12:21:33;1.10;;;1.10;;
5171;SDS011;2605;49.770;9.868;2022-10-15T12:24:05;1.60;;;1.30;;
5171;SDS011;2605;49.770;9.868;2022-10-15T12:26:51;1.73;;;1.63;;
5171;SDS011;2605;49.770;9.868;2022-10-15T12:29:20;1.67;;;1.57;;
5171;SDS011;2605;49.770;9.868;2022-10-15T12:31:51;1.10;;;1.00;;
5171;SDS011;2605;49.770;9.868;2022-10-15T12:34:31;1.93;;;0.90;;
5171;SDS011;2605;49.770;9.868;2022-10-15T12:37:05;1.20;;;1.10;;
5171;SDS011;2605;49.770;9.868;2022-10-15T12:39:41;1.00;;;1.00;;
5171;SDS011;2605;49.770;9.868;2022-10-15T12:42:21;1.10;;;1.10;;
5171;SDS011;2605;49.770;9.868;2022-10-15T12:44:55;1.63;;;1.10;;
5171;SDS011;2605;49.770;9.868;2022-10-15T12:50:22;1.20;;;1.10;;
5171;SDS011;2605;49.770;9.868;2022-10-15T12:55:27;1.13;;;1.13;;
5171;SDS011;2605;49.770;9.868;2022-10-15T12:57:56;1.40;;;1.30;;
5171;SDS011;2605;49.770;9.868;2022-10-15T13:02:55;1.37;;;1.17;;
5171;SDS011;2605;49.770;9.868;2022-10-15T13:05:33;1.37;;;1.10;;
5171;SDS011;2605;49.770;9.868;2022-10-15T13:08:00;1.83;;;1.30;;
5171;SDS011;2605;49.770;9.868;2022-10-15T13:13:00;3.17;;;1.30;;
5171;SDS011;2605;49.770;9.868;2022-10-15T13:15:28;5.73;;;1.50;;
5171;SDS011;2605;49.770;9.868;2022-10-15T13:17:57;1.57;;;1.50;;
5171;SDS011;2605;49.770;9.868;2022-10-15T13:23:08;1.27;;;1.17;;
5171;SDS011;2605;49.770;9.868;2022-10-15T13:25:45;1.50;;;1.40;;
5171;SDS011;2605;49.770;9.868;2022-10-15T13:28:31;1.60;;;1.50;;
5171;SDS011;2605;49.770;9.868;2022-10-15T13:31:01;1.50;;;1.40;;
5171;SDS011;2605;49.770;9.868;2022-10-15T13:33:30;1.10;;;1.10;;
5171;SDS011;2605;49.770;9.868;2022-10-15T13:36:07;4.20;;;1.20;;
5171;SDS011;2605;49.770;9.868;2022-10-15T13:38:38;3.63;;;1.20;;
5171;SDS011;2605;49.770;9.868;2022-10-15T13:41:04;1.40;;;1.30;;
5171;SDS011;2605;49.770;9.868;2022-10-15T13:43:31;2.60;;;1.47;;
5171;SDS011;2605;49.770;9.868;2022-10-15T13:45:57;1.90;;;1.27;;
5171;SDS011;2605;49.770;9.868;2022-10-15T13:48:26;1.10;;;1.10;;
5171;SDS011;2605;49.770;9.868;2022-10-15T13:50:53;1.23;;;1.13;;
5171;SDS011;2605;49.770;9.868;2022-10-15T13:53:35;1.47;;;1.20;;
5171;SDS011;2605;49.770;9.868;2022-10-15T13:58:57;1.10;;;1.00;;
5171;SDS011;2605;49.770;9.868;2022-10-15T14:01:25;1.30;;;1.20;;
5171;SDS011;2605;49.770;9.868;2022-10-15T14:03:52;1.13;;;1.03;;
5171;SDS011;2605;49.770;9.868;2022-10-15T14:08:47;1.67;;;1.57;;
5171;SDS011;2605;49.770;9.868;2022-10-15T14:11:14;1.30;;;1.20;;
5171;SDS011;2605;49.770;9.868;2022-10-15T14:13:45;1.47;;;1.13;;
5171;SDS011;2605;49.770;9.868;2022-10-15T14:16:19;1.13;;;1.13;;
5171;SDS011;2605;49.770;9.868;2022-10-15T14:18:58;2.33;;;1.70;;
5171;SDS011;2605;49.770;9.868;2022-10-15T14:21:36;4.20;;;1.00;;
5171;SDS011;2605;49.770;9.868;2022-10-15T14:24:11;1.20;;;1.10;;
5171;SDS011;2605;49.770;9.868;2022-10-15T14:26:42;1.10;;;1.10;;
5171;SDS011;2605;49.770;9.868;2022-10-15T14:29:20;1.40;;;1.20;;
5171;SDS011;2605;49.770;9.868;2022-10-15T14:31:51;1.53;;;1.30;;
5171;SDS011;2605;49.770;9.868;2022-10-15T14:34:35;2.60;;;1.17;;
5171;SDS011;2605;49.770;9.868;2022-10-15T14:42:39;4.83;;;1.53;;
5171;SDS011;2605;49.770;9.868;2022-10-15T14:45:09;2.30;;;1.00;;
5171;SDS011;2605;49.770;9.868;2022-10-15T14:47:43;1.43;;;0.70;;
5171;SDS011;2605;49.770;9.868;2022-10-15T14:50:11;1.10;;;1.00;;
5171;SDS011;2605;49.770;9.868;2022-10-15T14:52:37;1.83;;;1.00;;
5171;SDS011;2605;49.770;9.868;2022-10-15T14:57:48;3.53;;;1.13;;
5171;SDS011;2605;49.770;9.868;2022-10-15T15:00:25;1.47;;;1.37;;
5171;SDS011;2605;49.770;9.868;2022-10-15T15:02:53;2.30;;;1.23;;
5171;SDS011;2605;49.770;9.868;2022-10-15T15:05:22;1.20;;;1.10;;
5171;SDS011;2605;49.770;9.868;2022-10-15T15:07:49;1.40;;;1.20;;
5171;SDS011;2605;49.770;9.868;2022-10-15T15:10:15;0.97;;;0.97;;
5171;SDS011;2605;49.770;9.868;2022-10-15T15:12:48;1.10;;;1.00;;
5171;SDS011;2605;49.770;9.868;2022-10-15T15:15:18;3.17;;;1.40;;
5171;SDS011;2605;49.770;9.868;2022-10-15T15:17:46;3.40;;;1.20;;
5171;SDS011;2605;49.770;9.868;2022-10-15T15:20:12;1.30;;;1.03;;
5171;SDS011;2605;49.770;9.868;2022-10-15T15:22:39;5.40;;;1.60;;
5171;SDS011;2605;49.770;9.868;2022-10-15T15:25:12;1.57;;;1.30;;
5171;SDS011;2605;49.770;9.868;2022-10-15T15:27:40;2.93;;;1.50;;
5171;SDS011;2605;49.770;9.868;2022-10-15T15:30:07;2.50;;;1.50;;
5171;SDS011;2605;49.770;9.868;2022-10-15T15:32:48;1.90;;;1.23;;
5171;SDS011;2605;49.770;9.868;2022-10-15T15:35:15;3.20;;;1.50;;
5171;SDS011;2605;49.770;9.868;2022-10-15T15:37:51;1.63;;;1.53;;
5171;SDS011;2605;49.770;9.868;2022-10-15T15:40:17;1.77;;;1.63;;
5171;SDS011;2605;49.770;9.868;2022-10-15T15:42:43;4.27;;;1.30;;
5171;SDS011;2605;49.770;9.868;2022-10-15T15:45:13;1.63;;;1.50;;
5171;SDS011;2605;49.770;9.868;2022-10-15T15:47:44;4.40;;;1.37;;
5171;SDS011;2605;49.770;9.868;2022-10-15T15:50:10;1.63;;;1.30;;
5171;SDS011;2605;49.770;9.868;2022-10-15T15:52:36;1.20;;;1.10;;
5171;SDS011;2605;49.770;9.868;2022-10-15T15:55:02;2.30;;;1.50;;
5171;SDS011;2605;49.770;9.868;2022-10-15T15:57:30;1.50;;;1.40;;
5171;SDS011;2605;49.770;9.868;2022-10-15T15:59:56;1.83;;;1.50;;
5171;SDS011;2605;49.770;9.868;2022-10-15T16:02:21;3.53;;;1.33;;
5171;SDS011;2605;49.770;9.868;2022-10-15T16:04:47;1.47;;;1.20;;
5171;SDS011;2605;49.770;9.868;2022-10-15T16:07:12;1.40;;;1.30;;
5171;SDS011;2605;49.770;9.868;2022-10-15T16:09:38;6.43;;;1.53;;
5171;SDS011;2605;49.770;9.868;2022-10-15T16:12:04;5.83;;;1.63;;
5171;SDS011;2605;49.770;9.868;2022-10-15T16:14:29;2.57;;;1.50;;
5171;SDS011;2605;49.770;9.868;2022-10-15T16:16:56;3.07;;;1.60;;
5171;SDS011;2605;49.770;9.868;2022-10-15T16:19:22;2.50;;;1.20;;
5171;SDS011;2605;49.770;9.868;2022-10-15T16:21:47;2.50;;;1.30;;
5171;SDS011;2605;49.770;9.868;2022-10-15T16:24:13;1.20;;;1.20;;
5171;SDS011;2605;49.770;9.868;2022-10-15T16:26:38;1.37;;;1.27;;
5171;SDS011;2605;49.770;9.868;2022-10-15T16:29:04;4.57;;;1.77;;
5171;SDS011;2605;49.770;9.868;2022-10-15T16:31:29;1.40;;;1.30;;
5171;SDS011;2605;49.770;9.868;2022-10-15T16:33:56;1.50;;;1.40;;
5171;SDS011;2605;49.770;9.868;2022-10-15T16:36:22;2.30;;;1.50;;
5171;SDS011;2605;49.770;9.868;2022-10-15T16:38:48;2.40;;;1.47;;
5171;SDS011;2605;49.770;9.868;2022-10-15T16:41:14;2.37;;;1.67;;
5171;SDS011;2605;49.770;9.868;2022-10-15T16:43:42;3.00;;;1.80;;
5171;SDS011;2605;49.770;9.868;2022-10-15T16:46:08;7.50;;;1.33;;
5171;SDS011;2605;49.770;9.868;2022-10-15T16:48:34;3.10;;;1.67;;
5171;SDS011;2605;49.770;9.868;2022-10-15T16:51:00;1.60;;;1.50;;
5171;SDS011;2605;49.770;9.868;2022-10-15T16:53:27;2.13;;;1.40;;
5171;SDS011;2605;49.770;9.868;2022-10-15T16:55:58;2.17;;;1.90;;
5171;SDS011;2605;49.770;9.868;2022-10-15T16:58:27;2.33;;;1.47;;
5171;SDS011;2605;49.770;9.868;2022-10-15T17:00:56;1.67;;;1.30;;
5171;SDS011;2605;49.770;9.868;2022-10-15T17:03:23;1.27;;;1.27;;
5171;SDS011;2605;49.770;9.868;2022-10-15T17:05:49;1.43;;;1.33;;
5171;SDS011;2605;49.770;9.868;2022-10-15T17:08:19;1.60;;;1.50;;
5171;SDS011;2605;49.770;9.868;2022-10-15T17:10:45;3.57;;;1.47;;
5171;SDS011;2605;49.770;9.868;2022-10-15T17:13:10;5.63;;;1.17;;